createdAt,value
2018-07-24T00:00:59.178Z,75.87
2018-07-24T00:01:59.204Z,75.52
2018-07-24T00:02:59.213Z,77.42
2018-07-24T00:03:59.231Z,75.87
2018-07-24T00:04:59.248Z,76.16
2018-07-24T00:05:59.266Z,75.87
2018-07-24T00:06:59.285Z,77.13
2018-07-24T00:07:59.331Z,76.64
2018-07-24T00:08:59.379Z,76.26
2018-07-24T00:09:59.339Z,77.22
2018-07-24T00:10:59.399Z,77.42
2018-07-24T00:11:59.372Z,76.74
2018-07-24T00:12:59.395Z,76.35
2018-07-24T00:13:59.409Z,76.26
2018-07-24T00:14:59.425Z,75.97
2018-07-24T00:15:59.447Z,76.45
2018-07-24T00:16:59.521Z,76.16
2018-07-24T00:17:59.522Z,77.51
2018-07-24T00:18:59.497Z,76.51
2018-07-24T00:19:59.513Z,76.80
2018-07-24T00:20:59.531Z,77.28
2018-07-24T00:21:59.571Z,76.51
2018-07-24T00:22:59.567Z,76.93
2018-07-24T00:23:59.586Z,76.06
2018-07-24T00:24:59.600Z,76.35
2018-07-24T00:25:59.623Z,75.35
2018-07-24T00:26:59.635Z,76.03
2018-07-24T00:27:59.655Z,76.22
2018-07-24T00:28:59.674Z,76.12
2018-07-24T00:29:59.688Z,75.93
2018-07-24T00:30:59.705Z,75.54
2018-07-24T00:31:59.734Z,76.03
2018-07-24T00:33:00.146Z,75.35
2018-07-24T00:33:59.759Z,76.12
2018-07-24T00:34:59.775Z,75.64
2018-07-24T00:35:59.793Z,75.54
2018-07-24T00:36:59.809Z,75.26
2018-07-24T00:37:59.829Z,74.48
2018-07-24T00:38:59.908Z,74.48
2018-07-24T00:40:00.198Z,73.90
2018-07-24T00:40:59.881Z,74.29
2018-07-24T00:41:59.902Z,74.00
2018-07-24T00:42:59.915Z,73.90
2018-07-24T00:43:59.930Z,74.68
2018-07-24T00:44:59.950Z,74.54
2018-07-24T00:45:59.967Z,75.16
2018-07-24T00:46:59.985Z,74.06
2018-07-24T00:48:00.006Z,73.71
2018-07-24T00:49:00.086Z,73.22
2018-07-24T00:50:00.120Z,73.42
2018-07-24T00:51:00.054Z,73.71
2018-07-24T00:52:00.071Z,73.32
2018-07-24T00:53:00.111Z,73.80
2018-07-24T00:54:00.106Z,72.84
2018-07-24T00:55:00.125Z,73.03
2018-07-24T00:56:00.141Z,73.13
2018-07-24T00:57:00.159Z,73.32
2018-07-24T00:58:00.175Z,73.80
2018-07-24T00:59:00.193Z,75.54
2018-07-24T01:00:00.317Z,74.48
2018-07-24T01:01:00.228Z,74.38
2018-07-24T01:02:00.246Z,74.48
2018-07-24T01:03:00.363Z,74.00
2018-07-24T01:04:00.335Z,73.90
2018-07-24T01:05:00.297Z,73.86
2018-07-24T01:06:00.319Z,74.35
2018-07-24T01:07:00.332Z,75.02
2018-07-24T01:08:00.348Z,75.51
2018-07-24T01:09:00.366Z,74.64
2018-07-24T01:10:00.384Z,74.06
2018-07-24T01:11:00.400Z,75.02
2018-07-24T01:12:00.452Z,73.96
2018-07-24T01:13:00.470Z,74.54
2018-07-24T01:14:00.453Z,75.70
2018-07-24T01:15:00.467Z,75.60
2018-07-24T01:16:00.486Z,75.12
2018-07-24T01:17:00.503Z,75.02
2018-07-24T01:18:00.521Z,75.79
2018-07-24T01:19:00.541Z,74.64
2018-07-24T01:20:00.558Z,74.58
2018-07-24T01:22:00.628Z,73.71
2018-07-24T01:23:00.645Z,75.84
2018-07-24T01:24:00.632Z,75.45
2018-07-24T01:25:00.647Z,74.29
2018-07-24T01:26:00.659Z,74.19
2018-07-24T01:27:00.677Z,73.80
2018-07-24T01:28:00.692Z,75.16
2018-07-24T01:29:00.710Z,76.37
2018-07-24T01:30:00.728Z,76.57
2018-07-24T01:31:00.746Z,75.31
2018-07-24T01:32:00.762Z,75.74
2018-07-24T01:33:00.782Z,75.70
2018-07-24T01:34:00.820Z,76.09
2018-07-24T01:35:00.814Z,75.93
2018-07-24T01:36:00.931Z,75.93
2018-07-24T01:37:01.057Z,75.93
2018-07-24T01:38:00.872Z,75.60
2018-07-24T01:39:00.883Z,76.57
2018-07-24T01:40:00.899Z,77.34
2018-07-24T01:41:00.917Z,78.11
2018-07-24T01:42:00.934Z,79.47
2018-07-24T01:43:00.958Z,77.83
2018-07-24T01:44:00.972Z,77.63
2018-07-24T01:45:00.987Z,78.02
2018-07-24T01:46:01.001Z,78.11
2018-07-24T01:47:01.041Z,77.73
2018-07-24T01:48:01.036Z,77.92
2018-07-24T01:49:01.067Z,78.50
2018-07-24T01:50:01.073Z,78.89
2018-07-24T01:51:01.089Z,79.08
2018-07-24T01:52:01.107Z,78.56
2018-07-24T01:53:01.121Z,78.36
2018-07-24T01:54:01.134Z,79.52
2018-07-24T01:55:01.200Z,79.91
2018-07-24T01:56:01.223Z,80.10
2018-07-24T01:57:01.187Z,79.43
2018-07-24T01:58:01.202Z,78.85
2018-07-24T01:59:01.218Z,80.49
2018-07-24T02:00:01.236Z,80.97
2018-07-24T02:01:01.254Z,79.62
2018-07-24T02:02:01.272Z,81.16
2018-07-24T02:03:01.294Z,80.87
2018-07-24T02:04:01.306Z,79.91
2018-07-24T02:05:01.321Z,80.68
2018-07-24T02:06:01.338Z,81.26
2018-07-24T02:07:01.356Z,80.30
2018-07-24T02:08:01.388Z,79.81
2018-07-24T02:09:01.396Z,79.52
2018-07-24T02:10:01.406Z,79.14
2018-07-24T02:11:01.424Z,79.04
2018-07-24T02:12:01.439Z,80.78
2018-07-24T02:13:01.457Z,80.20
2018-07-24T02:14:01.482Z,80.78
2018-07-24T02:15:01.495Z,81.32
2018-07-24T02:16:01.512Z,79.97
2018-07-24T02:17:01.525Z,81.99
2018-07-24T02:18:01.568Z,81.32
2018-07-24T02:19:01.560Z,82.09
2018-07-24T02:20:01.579Z,82.57
2018-07-24T02:21:01.593Z,81.22
2018-07-24T02:22:01.613Z,80.93
2018-07-24T02:23:01.627Z,80.74
2018-07-24T02:24:01.645Z,81.41
2018-07-24T02:25:01.662Z,80.26
2018-07-24T02:26:01.725Z,80.45
2018-07-24T02:27:01.695Z,80.26
2018-07-24T02:28:01.713Z,79.77
2018-07-24T02:29:01.735Z,82.09
2018-07-24T02:30:01.751Z,81.22
2018-07-24T02:31:01.764Z,81.12
2018-07-24T02:32:01.795Z,82.09
2018-07-24T02:33:01.804Z,82.18
2018-07-24T02:34:01.817Z,82.34
2018-07-24T02:35:01.829Z,82.82
2018-07-24T02:36:01.851Z,82.14
2018-07-24T02:37:01.864Z,82.72
2018-07-24T02:38:01.882Z,82.05
2018-07-24T02:39:01.897Z,82.43
2018-07-24T02:40:01.916Z,82.34
2018-07-24T02:41:01.959Z,82.92
2018-07-24T02:42:01.965Z,83.40
2018-07-24T02:43:01.966Z,83.50
2018-07-24T02:44:01.983Z,82.72
2018-07-24T02:45:02.003Z,82.62
2018-07-24T02:46:02.016Z,82.53
2018-07-24T02:47:02.033Z,82.05
2018-07-24T02:48:02.050Z,82.05
2018-07-24T02:49:02.066Z,81.47
2018-07-24T02:50:02.089Z,81.95
2018-07-24T02:51:02.102Z,81.95
2018-07-24T02:52:02.138Z,82.24
2018-07-24T02:53:02.141Z,82.24
2018-07-24T02:54:02.151Z,82.05
2018-07-24T02:55:02.169Z,82.92
2018-07-24T02:56:02.187Z,82.49
2018-07-24T02:57:02.201Z,83.16
2018-07-24T02:58:02.220Z,83.26
2018-07-24T02:59:02.241Z,83.01
2018-07-24T03:00:02.259Z,82.78
2018-07-24T03:01:02.271Z,82.97
2018-07-24T03:02:02.306Z,81.91
2018-07-24T03:03:02.306Z,82.49
2018-07-24T03:04:02.320Z,82.97
2018-07-24T03:05:02.343Z,84.61
2018-07-24T03:06:02.353Z,85.47
2018-07-24T03:07:02.370Z,84.22
2018-07-24T03:08:02.388Z,83.74
2018-07-24T03:09:02.403Z,83.45
2018-07-24T03:10:02.420Z,83.36
2018-07-24T03:11:02.435Z,84.61
2018-07-24T03:12:02.457Z,83.94
2018-07-24T03:13:02.571Z,84.80
2018-07-24T03:14:02.488Z,85.67
2018-07-24T03:15:02.507Z,84.42
2018-07-24T03:16:02.522Z,84.52
2018-07-24T03:17:02.554Z,84.32
2018-07-24T03:18:02.557Z,83.45
2018-07-24T03:19:02.569Z,85.57
2018-07-24T03:20:02.591Z,84.90
2018-07-24T03:21:02.605Z,85.28
2018-07-24T03:22:02.623Z,85.19
2018-07-24T03:23:02.648Z,84.61
2018-07-24T03:24:02.663Z,84.32
2018-07-24T03:25:02.688Z,85.57
2018-07-24T03:26:02.686Z,84.90
2018-07-24T03:27:02.731Z,84.86
2018-07-24T03:28:02.724Z,83.45
2018-07-24T03:29:02.738Z,83.45
2018-07-24T03:30:02.758Z,83.89
2018-07-24T03:31:02.768Z,84.32
2018-07-24T03:32:02.785Z,84.52
2018-07-24T03:33:02.805Z,84.52
2018-07-24T03:34:02.820Z,84.03
2018-07-24T03:35:02.866Z,84.18
2018-07-24T03:36:02.852Z,83.51
2018-07-24T03:37:02.870Z,83.99
2018-07-24T03:38:02.887Z,84.86
2018-07-24T03:39:02.902Z,84.38
2018-07-24T03:40:02.919Z,84.47
2018-07-24T03:41:02.942Z,83.12
2018-07-24T03:42:02.953Z,84.09
2018-07-24T03:43:02.969Z,84.56
2018-07-24T03:44:02.983Z,85.24
2018-07-24T03:45:03.068Z,84.76
2018-07-24T03:46:03.019Z,85.43
2018-07-24T03:47:03.085Z,84.18
2018-07-24T03:48:03.054Z,84.86
2018-07-24T03:49:03.069Z,84.47
2018-07-24T03:50:03.091Z,84.95
2018-07-24T03:51:03.102Z,84.09
2018-07-24T03:52:03.123Z,83.61
2018-07-24T03:53:03.136Z,84.18
2018-07-24T03:54:03.179Z,83.22
2018-07-24T03:55:03.204Z,83.31
2018-07-24T03:56:03.495Z,83.22
2018-07-24T03:57:03.215Z,83.70
2018-07-24T03:58:03.221Z,83.41
2018-07-24T03:59:03.235Z,83.80
2018-07-24T04:00:03.252Z,83.22
2018-07-24T04:01:03.271Z,82.45
2018-07-24T04:02:03.284Z,83.99
2018-07-24T04:03:03.307Z,83.31
2018-07-24T04:04:03.323Z,83.61
2018-07-24T04:05:03.339Z,83.41
2018-07-24T04:06:03.350Z,83.22
2018-07-24T04:07:03.376Z,82.74
2018-07-24T04:08:03.385Z,82.54
2018-07-24T04:09:03.400Z,84.47
2018-07-24T04:10:03.417Z,84.09
2018-07-24T04:11:03.434Z,83.70
2018-07-24T04:12:03.447Z,83.70
2018-07-24T04:13:03.464Z,83.70
2018-07-24T04:14:03.482Z,83.80
2018-07-24T04:15:03.499Z,83.99
2018-07-24T04:16:03.517Z,83.41
2018-07-24T04:17:03.533Z,83.70
2018-07-24T04:18:03.549Z,83.51
2018-07-24T04:19:03.564Z,82.83
2018-07-24T04:20:03.682Z,84.12
2018-07-24T04:21:03.618Z,83.80
2018-07-24T04:22:03.616Z,83.41
2018-07-24T04:23:03.630Z,83.55
2018-07-24T04:24:03.650Z,84.47
2018-07-24T04:25:03.664Z,84.66
2018-07-24T04:26:03.682Z,84.32
2018-07-24T04:27:03.696Z,82.97
2018-07-24T04:28:03.715Z,83.31
2018-07-24T04:29:03.734Z,84.28
2018-07-24T04:30:03.810Z,83.99
2018-07-24T04:31:03.774Z,84.18
2018-07-24T04:32:03.787Z,84.76
2018-07-24T04:33:03.795Z,83.64
2018-07-24T04:34:03.822Z,83.41
2018-07-24T04:35:03.830Z,83.70
2018-07-24T04:36:03.854Z,85.24
2018-07-24T04:37:03.864Z,83.61
2018-07-24T04:38:04.236Z,83.99
2018-07-24T04:39:03.938Z,85.63
2018-07-24T04:40:04.073Z,84.86
2018-07-24T04:41:04.064Z,84.18
2018-07-24T04:42:04.220Z,84.76
2018-07-24T04:43:03.976Z,84.28
2018-07-24T04:44:04.404Z,85.43
2018-07-24T04:45:04.003Z,84.56
2018-07-24T04:46:04.144Z,84.56
2018-07-24T04:47:04.105Z,83.89
2018-07-24T04:48:04.426Z,84.95
2018-07-24T04:49:04.084Z,84.95
2018-07-24T04:50:04.386Z,84.22
2018-07-24T04:51:04.139Z,84.22
2018-07-24T04:52:04.112Z,83.36
2018-07-24T04:53:04.185Z,83.94
2018-07-24T04:54:04.189Z,83.55
2018-07-24T04:55:04.164Z,84.52
2018-07-24T04:56:04.186Z,83.55
2018-07-24T04:57:04.504Z,83.64
2018-07-24T04:58:04.224Z,83.26
2018-07-24T04:59:04.257Z,83.84
2018-07-24T05:00:04.261Z,83.16
2018-07-24T05:01:04.281Z,82.59
2018-07-24T05:02:04.278Z,82.87
2018-07-24T05:03:04.298Z,82.39
2018-07-24T05:04:04.471Z,82.97
2018-07-24T05:05:04.600Z,82.59
2018-07-24T05:06:04.354Z,82.39
2018-07-24T05:07:04.380Z,83.36
2018-07-24T05:08:04.388Z,82.78
2018-07-24T05:09:04.394Z,82.68
2018-07-24T05:10:04.411Z,82.39
2018-07-24T05:11:04.435Z,82.24
2018-07-24T05:12:04.443Z,82.59
2018-07-24T05:13:04.461Z,82.59
2018-07-24T05:14:04.477Z,82.53
2018-07-24T05:15:04.499Z,83.20
2018-07-24T05:16:04.510Z,82.14
2018-07-24T05:17:04.529Z,82.24
2018-07-24T05:18:04.694Z,83.59
2018-07-24T05:19:04.761Z,82.92
2018-07-24T05:20:04.699Z,82.53
2018-07-24T05:21:04.595Z,81.95
2018-07-24T05:22:04.927Z,82.43
2018-07-24T05:23:04.813Z,82.43
2018-07-24T05:24:04.662Z,83.01
2018-07-24T05:25:04.848Z,83.50
2018-07-24T05:26:04.789Z,83.11
2018-07-24T05:27:04.821Z,81.66
2018-07-24T05:28:04.879Z,82.24
2018-07-24T05:29:04.797Z,82.82
2018-07-24T05:30:04.979Z,82.92
2018-07-24T05:31:04.951Z,82.62
2018-07-24T05:32:04.906Z,84.07
2018-07-24T05:33:04.797Z,82.53
2018-07-24T05:34:04.816Z,81.90
2018-07-24T05:35:04.827Z,82.48
2018-07-24T05:36:04.843Z,83.05
2018-07-24T05:37:04.861Z,82.09
2018-07-24T05:38:04.878Z,82.76
2018-07-24T05:39:04.894Z,83.05
2018-07-24T05:40:04.916Z,82.76
2018-07-24T05:41:04.926Z,82.57
2018-07-24T05:42:04.945Z,83.34
2018-07-24T05:43:04.962Z,82.61
2018-07-24T05:44:04.978Z,81.80
2018-07-24T05:45:04.996Z,81.65
2018-07-24T05:46:05.013Z,81.80
2018-07-24T05:47:05.044Z,81.84
2018-07-24T05:48:05.045Z,80.97
2018-07-24T05:50:05.078Z,81.35
2018-07-24T05:51:05.095Z,81.93
2018-07-24T05:52:05.119Z,80.78
2018-07-24T05:53:05.135Z,81.45
2018-07-24T05:54:05.219Z,81.93
2018-07-24T05:55:05.185Z,81.93
2018-07-24T05:56:05.178Z,81.26
2018-07-24T05:57:05.203Z,80.78
2018-07-24T05:58:05.215Z,80.39
2018-07-24T05:59:05.236Z,79.72
2018-07-24T06:00:05.250Z,80.39
2018-07-24T06:01:05.300Z,80.72
2018-07-24T06:02:05.288Z,80.33
2018-07-24T06:03:05.297Z,80.82
2018-07-24T06:04:05.317Z,79.56
2018-07-24T06:05:05.346Z,79.47
2018-07-24T06:06:05.353Z,80.24
2018-07-24T06:08:05.403Z,81.78
2018-07-24T06:09:05.399Z,81.88
2018-07-24T06:10:05.420Z,81.01
2018-07-24T06:11:05.437Z,80.91
2018-07-24T06:12:05.466Z,79.85
2018-07-24T06:13:05.486Z,78.73
2018-07-24T06:14:05.484Z,79.02
2018-07-24T06:15:05.498Z,78.73
2018-07-24T06:16:05.520Z,78.73
2018-07-24T06:17:05.611Z,78.73
2018-07-24T06:18:05.548Z,79.41
2018-07-24T06:19:05.565Z,78.92
2018-07-24T06:20:05.733Z,78.92
2018-07-24T06:21:05.605Z,78.54
2018-07-24T06:22:05.879Z,79.70
2018-07-24T06:23:05.674Z,79.70
2018-07-24T06:24:05.654Z,78.34
2018-07-24T06:25:05.669Z,78.15
2018-07-24T06:26:05.735Z,79.50
2018-07-24T06:27:05.702Z,78.00
2018-07-24T06:28:06.013Z,77.71
2018-07-24T06:29:05.736Z,77.61
2018-07-24T06:30:05.754Z,77.71
2018-07-24T06:32:05.797Z,77.80
2018-07-24T06:33:05.812Z,77.61
2018-07-24T06:34:05.833Z,77.51
2018-07-24T06:35:05.843Z,77.45
2018-07-24T06:36:05.856Z,77.13
2018-07-24T06:37:05.897Z,77.17
2018-07-24T06:38:05.953Z,77.07
2018-07-24T06:39:05.950Z,77.17
2018-07-24T06:40:05.979Z,77.36
2018-07-24T06:41:05.964Z,77.26
2018-07-24T06:42:05.974Z,77.17
2018-07-24T06:43:06.125Z,76.39
2018-07-24T06:44:05.991Z,76.68
2018-07-24T06:45:06.011Z,76.59
2018-07-24T06:46:06.027Z,75.81
2018-07-24T06:47:06.043Z,75.52
2018-07-24T06:48:06.064Z,75.75
2018-07-24T06:49:06.078Z,75.46
2018-07-24T06:50:06.106Z,75.27
2018-07-24T06:51:06.127Z,74.98
2018-07-24T06:52:06.199Z,75.95
2018-07-24T06:53:06.152Z,76.14
2018-07-24T06:54:06.167Z,75.27
2018-07-24T06:55:06.188Z,74.21
2018-07-24T06:56:06.201Z,74.53
2018-07-24T06:57:06.221Z,74.24
2018-07-24T06:58:06.235Z,74.05
2018-07-24T06:59:06.284Z,72.98
2018-07-24T07:00:06.275Z,73.27
2018-07-24T07:01:06.296Z,73.37
2018-07-24T07:02:06.314Z,74.53
2018-07-24T07:03:06.355Z,73.75
2018-07-24T07:04:06.340Z,73.31
2018-07-24T07:05:06.414Z,71.82
2018-07-24T07:06:06.377Z,72.05
2018-07-24T07:07:06.392Z,72.15
2018-07-24T07:08:06.423Z,72.24
2018-07-24T07:09:06.576Z,72.24
2018-07-24T07:10:06.500Z,72.63
2018-07-24T07:11:06.461Z,72.05
2018-07-24T07:12:06.478Z,70.40
2018-07-24T07:13:06.499Z,70.31
2018-07-24T07:14:06.618Z,70.70
2018-07-24T07:15:06.535Z,71.22
2018-07-24T07:16:06.560Z,70.63
2018-07-24T07:17:06.566Z,70.83
2018-07-24T07:18:06.608Z,70.15
2018-07-24T07:19:06.635Z,69.95
2018-07-24T07:20:06.630Z,69.85
2018-07-24T07:21:06.685Z,70.34
2018-07-24T07:23:06.681Z,69.08
2018-07-24T07:24:07.008Z,69.12
2018-07-24T07:25:06.725Z,68.92
2018-07-24T07:26:06.771Z,68.73
2018-07-24T07:27:06.745Z,68.34
2018-07-24T07:28:06.914Z,67.85
2018-07-24T07:29:06.839Z,67.57
2018-07-24T07:30:06.813Z,66.60
2018-07-24T07:31:06.816Z,67.47
2018-07-24T07:32:06.887Z,66.50
2018-07-24T07:33:06.852Z,67.57
2018-07-24T07:34:06.885Z,66.69
2018-07-24T07:35:06.890Z,65.72
2018-07-24T07:36:06.924Z,65.72
2018-07-24T07:37:06.946Z,65.24
2018-07-24T07:38:06.945Z,64.95
2018-07-24T07:39:07.489Z,65.17
2018-07-24T07:40:07.017Z,65.85
2018-07-24T07:41:06.994Z,64.98
2018-07-24T07:42:07.099Z,64.69
2018-07-24T07:43:07.033Z,64.50
2018-07-24T07:44:07.055Z,64.69
2018-07-24T07:45:07.067Z,64.04
2018-07-24T07:46:07.090Z,63.95
2018-07-24T07:47:07.108Z,64.04
2018-07-24T07:48:07.178Z,63.07
2018-07-24T07:49:07.679Z,63.36
2018-07-24T07:50:07.157Z,62.19
2018-07-24T07:51:07.211Z,62.39
2018-07-24T07:52:07.195Z,63.07
2018-07-24T07:53:07.655Z,62.10
2018-07-24T07:54:07.233Z,62.39
2018-07-24T07:55:07.390Z,62.59
2018-07-24T07:56:07.414Z,61.52
2018-07-24T07:57:07.288Z,61.52
2018-07-24T07:58:07.307Z,61.52
2018-07-24T07:59:07.322Z,60.74
2018-07-24T08:00:07.338Z,61.91
2018-07-24T08:01:07.412Z,61.42
2018-07-24T08:02:07.375Z,61.04
2018-07-24T08:03:07.571Z,61.16
2018-07-24T08:04:07.434Z,61.55
2018-07-24T08:05:07.562Z,61.07
2018-07-24T08:06:07.518Z,60.87
2018-07-24T08:07:07.884Z,60.58
2018-07-24T08:08:07.622Z,60.28
2018-07-24T08:09:07.581Z,60.00
2018-07-24T08:11:07.551Z,59.12
2018-07-24T08:12:07.964Z,58.73
2018-07-24T08:13:07.588Z,58.93
2018-07-24T08:14:07.610Z,58.86
2018-07-24T08:15:07.611Z,59.92
2018-07-24T08:16:07.799Z,59.83
2018-07-24T08:17:07.749Z,60.51
2018-07-24T08:18:07.673Z,60.71
2018-07-24T08:20:08.211Z,60.28
2018-07-24T08:21:07.860Z,60.58
2018-07-24T08:22:07.795Z,59.70
2018-07-24T08:23:07.759Z,60.68
2018-07-24T08:24:07.778Z,60.00
2018-07-24T08:25:07.833Z,58.95
2018-07-24T08:26:07.814Z,58.57
2018-07-24T08:27:07.908Z,58.86
2018-07-24T08:28:08.272Z,58.08
2018-07-24T08:29:08.380Z,57.01
2018-07-24T08:31:07.912Z,56.92
2018-07-24T08:32:07.934Z,57.72
2018-07-24T08:33:07.959Z,58.40
2018-07-24T08:34:08.200Z,58.69
2018-07-24T08:35:08.037Z,58.79
2018-07-24T08:36:08.217Z,57.62
2018-07-24T08:37:08.019Z,55.78
2018-07-24T08:38:08.528Z,56.07
2018-07-24T08:39:08.157Z,56.26
2018-07-24T08:41:08.099Z,55.88
2018-07-24T08:42:08.134Z,56.39
2018-07-24T08:43:08.131Z,56.29
2018-07-24T08:44:08.205Z,56.39
2018-07-24T08:45:08.166Z,55.80
2018-07-24T08:46:08.406Z,55.41
2018-07-24T08:47:08.203Z,55.13
2018-07-24T08:48:08.270Z,55.41
2018-07-24T08:49:08.252Z,54.74
2018-07-24T08:50:08.273Z,54.25
2018-07-24T08:51:08.322Z,54.76
2018-07-24T08:52:08.296Z,54.54
2018-07-24T08:53:08.439Z,54.47
2018-07-24T08:54:08.542Z,54.18
2018-07-24T08:55:08.584Z,54.76
2018-07-24T08:56:08.376Z,53.40
2018-07-24T08:57:08.532Z,53.50
2018-07-24T08:58:08.421Z,53.20
2018-07-24T08:59:08.480Z,53.79
2018-07-24T09:00:08.444Z,54.18
2018-07-24T09:01:08.841Z,53.20
2018-07-24T09:02:08.545Z,53.20
2018-07-24T09:03:08.705Z,53.59
2018-07-24T09:04:08.613Z,53.86
2018-07-24T09:05:08.542Z,54.08
2018-07-24T09:06:08.561Z,53.59
2018-07-24T09:07:08.577Z,53.08
2018-07-24T09:08:08.601Z,53.01
2018-07-24T09:09:08.616Z,53.11
2018-07-24T09:10:08.734Z,53.20
2018-07-24T09:11:08.654Z,51.26
2018-07-24T09:12:08.675Z,50.78
2018-07-24T09:13:08.697Z,50.48
2018-07-24T09:14:09.117Z,49.92
2018-07-24T09:15:08.735Z,49.99
2018-07-24T09:16:08.927Z,49.73
2018-07-24T09:18:09.470Z,53.04
2018-07-24T09:19:09.870Z,52.43
2018-07-24T09:20:08.830Z,51.65
2018-07-24T09:21:09.242Z,51.07
2018-07-24T09:22:08.916Z,51.94
2018-07-24T09:23:08.928Z,53.14
2018-07-24T09:24:08.910Z,52.23
2018-07-24T09:25:08.953Z,51.87
2018-07-24T09:26:09.022Z,50.31
2018-07-24T09:27:08.971Z,50.31
2018-07-24T09:28:09.053Z,49.73
2018-07-24T09:29:08.995Z,50.04
2018-07-24T09:30:09.016Z,50.53
2018-07-24T09:31:09.033Z,49.17
2018-07-24T09:32:09.115Z,48.10
2018-07-24T09:33:09.072Z,48.49
2018-07-24T09:34:09.091Z,50.14
2018-07-24T09:35:09.111Z,50.04
2018-07-24T09:36:09.170Z,48.88
2018-07-24T09:37:09.151Z,48.58
2018-07-24T09:38:09.417Z,49.66
2018-07-24T09:39:09.193Z,49.76
2018-07-24T09:40:09.206Z,48.39
2018-07-24T09:41:09.224Z,48.97
2018-07-24T09:42:09.247Z,49.17
2018-07-24T09:43:09.283Z,48.71
2018-07-24T09:44:09.280Z,48.22
2018-07-24T09:45:09.303Z,48.61
2018-07-24T09:46:09.327Z,48.41
2018-07-24T09:47:09.345Z,46.27
2018-07-24T09:48:09.410Z,46.56
2018-07-24T09:49:09.378Z,47.15
2018-07-24T09:50:09.419Z,47.56
2018-07-24T09:51:09.420Z,47.56
2018-07-24T09:52:09.447Z,47.27
2018-07-24T09:53:09.457Z,48.44
2018-07-24T09:54:09.476Z,48.34
2018-07-24T09:55:09.494Z,48.34
2018-07-24T09:56:09.527Z,48.02
2018-07-24T09:57:09.532Z,48.71
2018-07-24T09:58:09.554Z,48.41
2018-07-24T09:59:09.590Z,48.61
2018-07-24T10:00:09.592Z,47.83
2018-07-24T10:01:09.681Z,46.95
2018-07-24T10:02:09.633Z,47.63
2018-07-24T10:03:09.654Z,47.34
2018-07-24T10:05:09.991Z,46.47
2018-07-24T10:06:10.069Z,46.66
2018-07-24T10:08:09.952Z,44.93
2018-07-24T10:09:09.825Z,45.78
2018-07-24T10:10:09.836Z,45.49
2018-07-24T10:11:09.869Z,46.27
2018-07-24T10:12:09.879Z,46.59
2018-07-24T10:13:10.043Z,46.39
2018-07-24T10:14:09.866Z,46.97
2018-07-24T10:15:09.889Z,47.36
2018-07-24T10:16:09.906Z,47.27
2018-07-24T10:17:09.925Z,46.88
2018-07-24T10:18:09.940Z,46.49
2018-07-24T10:19:09.960Z,46.00
2018-07-24T10:20:09.973Z,45.25
2018-07-24T10:21:10.043Z,44.95
2018-07-24T10:22:10.060Z,45.95
2018-07-24T10:23:10.033Z,45.26
2018-07-24T10:24:10.052Z,45.07
2018-07-24T10:25:10.072Z,45.46
2018-07-24T10:26:10.518Z,44.38
2018-07-24T10:27:10.145Z,43.80
2018-07-24T10:28:10.771Z,44.87
2018-07-24T10:29:10.158Z,45.26
2018-07-24T10:30:10.201Z,44.97
2018-07-24T10:31:10.187Z,45.00
2018-07-24T10:32:10.207Z,45.17
2018-07-24T10:33:10.232Z,44.58
2018-07-24T10:34:10.249Z,43.99
2018-07-24T10:35:10.431Z,45.26
2018-07-24T10:36:10.290Z,44.78
2018-07-24T10:37:10.324Z,45.65
2018-07-24T10:38:10.356Z,44.58
2018-07-24T10:39:10.348Z,44.12
2018-07-24T10:40:10.366Z,43.82
2018-07-24T10:42:10.405Z,44.21
2018-07-24T10:43:10.553Z,44.41
2018-07-24T10:44:10.442Z,44.60
2018-07-24T10:45:10.465Z,45.00
2018-07-24T10:46:10.485Z,44.31
2018-07-24T10:47:10.505Z,44.31
2018-07-24T10:48:10.534Z,43.04
2018-07-24T10:49:10.623Z,42.16
2018-07-24T10:50:10.624Z,41.80
2018-07-24T10:51:10.581Z,41.87
2018-07-24T10:52:10.604Z,42.29
2018-07-24T10:53:10.624Z,41.48
2018-07-24T10:54:10.657Z,41.09
2018-07-24T10:55:10.761Z,41.77
2018-07-24T10:56:10.681Z,43.07
2018-07-24T10:57:10.716Z,42.55
2018-07-24T10:59:11.164Z,43.07
2018-07-24T11:00:10.762Z,41.80
2018-07-24T11:01:11.297Z,42.38
2018-07-24T11:02:10.800Z,42.77
2018-07-24T11:03:10.829Z,43.55
2018-07-24T11:04:11.222Z,43.65
2018-07-24T11:05:10.937Z,43.75
2018-07-24T11:06:10.955Z,44.94
2018-07-24T11:07:11.388Z,44.34
2018-07-24T11:08:10.942Z,44.35
2018-07-24T11:09:10.955Z,42.79
2018-07-24T11:10:10.962Z,42.50
2018-07-24T11:11:10.980Z,44.65
2018-07-24T11:12:11.006Z,42.11
2018-07-24T11:13:11.021Z,42.30
2018-07-24T11:14:11.040Z,43.96
2018-07-24T11:15:11.060Z,43.87
2018-07-24T11:16:12.066Z,43.08
2018-07-24T11:17:11.399Z,43.59
2018-07-24T11:18:11.122Z,42.79
2018-07-24T11:19:11.379Z,43.65
2018-07-24T11:20:11.188Z,42.87
2018-07-24T11:21:11.187Z,42.09
2018-07-24T11:22:11.519Z,43.07
2018-07-24T11:23:11.987Z,44.24
2018-07-24T11:24:11.242Z,43.18
2018-07-24T11:25:11.270Z,42.99
2018-07-24T11:26:11.285Z,42.99
2018-07-24T11:28:11.360Z,42.21
2018-07-24T11:29:11.346Z,41.93
2018-07-24T11:30:11.364Z,42.71
2018-07-24T11:31:11.383Z,40.95
2018-07-24T11:32:11.907Z,41.25
2018-07-24T11:33:11.421Z,40.88
2018-07-24T11:34:11.443Z,40.68
2018-07-24T11:35:11.461Z,40.58
2018-07-24T11:36:11.543Z,41.17
2018-07-24T11:37:11.504Z,40.95
2018-07-24T11:38:11.528Z,40.86
2018-07-24T11:39:11.549Z,41.15
2018-07-24T11:40:11.566Z,40.86
2018-07-24T11:41:11.681Z,40.76
2018-07-24T11:42:11.606Z,41.74
2018-07-24T11:43:11.625Z,41.74
2018-07-24T11:44:11.748Z,42.91
2018-07-24T11:45:11.668Z,41.54
2018-07-24T11:46:11.688Z,42.74
2018-07-24T11:47:11.707Z,42.15
2018-07-24T11:48:11.729Z,41.27
2018-07-24T11:49:11.750Z,41.17
2018-07-24T11:50:11.771Z,41.76
2018-07-24T11:51:11.792Z,40.58
2018-07-24T11:52:11.814Z,43.32
2018-07-24T11:53:11.829Z,41.46
2018-07-24T11:54:11.851Z,40.78
2018-07-24T11:55:11.884Z,41.68
2018-07-24T11:56:11.965Z,42.27
2018-07-24T11:57:12.010Z,39.43
2018-07-24T11:58:12.046Z,40.41
2018-07-24T11:59:11.958Z,40.50
2018-07-24T12:00:11.977Z,40.58
2018-07-24T12:01:11.993Z,40.97
2018-07-24T12:02:12.015Z,40.39
2018-07-24T12:03:12.035Z,39.04
2018-07-24T12:04:12.100Z,40.01
2018-07-24T12:05:12.076Z,39.53
2018-07-24T12:06:12.097Z,40.21
2018-07-24T12:07:12.117Z,41.02
2018-07-24T12:08:12.197Z,40.53
2018-07-24T12:09:12.171Z,40.84
2018-07-24T12:10:12.187Z,40.35
2018-07-24T12:11:12.206Z,38.88
2018-07-24T12:12:12.222Z,39.37
2018-07-24T12:13:12.243Z,38.21
2018-07-24T12:14:12.307Z,38.70
2018-07-24T12:15:12.384Z,42.23
2018-07-24T12:16:12.368Z,37.63
2018-07-24T12:17:12.704Z,38.29
2018-07-24T12:18:12.355Z,37.81
2018-07-24T12:19:12.370Z,38.68
2018-07-24T12:20:12.553Z,38.98
2018-07-24T12:21:12.411Z,38.88
2018-07-24T12:22:12.430Z,37.41
2018-07-24T12:23:12.456Z,38.20
2018-07-24T12:24:12.514Z,38.78
2018-07-24T12:25:12.496Z,37.81
2018-07-24T12:26:12.514Z,37.92
2018-07-24T12:27:12.563Z,36.94
2018-07-24T12:28:12.557Z,38.29
2018-07-24T12:29:12.590Z,38.51
2018-07-24T12:30:12.605Z,39.29
2018-07-24T12:32:12.748Z,40.17
2018-07-24T12:33:12.898Z,40.37
2018-07-24T12:34:12.693Z,37.81
2018-07-24T12:35:12.704Z,38.88
2018-07-24T12:36:12.921Z,40.47
2018-07-24T12:37:12.745Z,37.73
2018-07-24T12:38:12.771Z,37.04
2018-07-24T12:39:12.789Z,36.76
2018-07-24T12:40:12.810Z,36.27
2018-07-24T12:41:12.834Z,36.49
2018-07-24T12:42:12.853Z,39.33
2018-07-24T12:43:12.876Z,36.19
2018-07-24T12:44:12.895Z,37.56
2018-07-24T12:45:12.916Z,36.19
2018-07-24T12:46:12.937Z,36.39
2018-07-24T12:47:12.983Z,36.40
2018-07-24T12:48:12.987Z,34.74
2018-07-24T12:49:13.003Z,34.34
2018-07-24T12:50:13.027Z,36.70
2018-07-24T12:51:13.049Z,36.51
2018-07-24T12:52:13.082Z,34.36
2018-07-24T12:53:13.103Z,37.40
2018-07-24T12:54:13.119Z,35.03
2018-07-24T12:55:13.147Z,36.99
2018-07-24T12:56:13.180Z,39.35
2018-07-24T12:57:13.178Z,36.60
2018-07-24T12:58:13.215Z,35.91
2018-07-24T12:59:13.238Z,38.27
2018-07-24T13:00:13.260Z,34.34
2018-07-24T13:01:13.285Z,40.13
2018-07-24T13:02:13.299Z,37.38
2018-07-24T13:03:13.323Z,38.78
2018-07-24T13:04:13.421Z,34.83
2018-07-24T13:05:13.370Z,36.11
2018-07-24T13:06:13.395Z,34.93
2018-07-24T13:07:13.420Z,34.85
2018-07-24T13:08:13.463Z,37.90
2018-07-24T13:09:13.473Z,36.42